Friday, November 24, 2017, 8:20 AM EST
Back to Local

KDXR, Danbury Municipal Airport

Location: Danbury, CT, United States Lat: 41.367
Local Time: 8:20 AM EST (13:20 GMT) Lon: -73.483
Time Zone: US/Eastern Elev: 459 ft

Show me the last for .
Show Coded

Time T Td Feel RH Dir Speed Gust Alt SLP Vis Weather Sky Remarks
2017-11-24 07:53 27 23 - 84 - Calm - 30.05 30.06 10 CLR None
2017-11-24 06:53 25 20 21 80 230° 3 - 30.04 30.05 10 CLR 6-hr Min Temp (7am): 23.0°F
6-hr Max Temp (7am): 26.1°F
2017-11-24 05:53 23 20 18 87 230° 3 - 30.03 30.04 10 CLR None
2017-11-24 04:53 25 21 - 84 - Calm - 30.02 30.03 10 CLR None
2017-11-24 03:53 23 20 - 87 - Calm - 30.02 30.03 10 CLR None
2017-11-24 02:53 25 21 - 84 - Calm - 30.02 30.03 10 CLR None
2017-11-24 01:53 25 21 - 84 - Calm - 30.02 30.03 10 CLR None
2017-11-24 00:53 25 20 - 80 - Calm - 30.02 30.03 10 CLR 6-hr Min Temp (1am): 25.0°F
6-hr Max Temp (1am): 30.9°F
2017-11-23 23:53 26 21 - 80 - Calm - 30.03 30.03 10 CLR 24-hr Min Temp (12am): 26.1°F
24-hr Max Temp (12am): 42.1°F
2017-11-23 22:53 29 22 - 74 - Calm - 30.02 30.03 10 OVC100 None
2017-11-23 21:53 28 21 - 74 - Calm - 30.02 30.03 10 CLR None
2017-11-23 20:53 29 21 - 71 - Calm - 30.01 30.02 10 CLR None
2017-11-23 19:53 30 21 26 68 240° 3 - 30.01 30.02 10 CLR None
2017-11-23 18:53 31 21 27 66 240° 3 - 30.00 30.01 10 CLR 6-hr Min Temp (7pm): 28.9°F
6-hr Max Temp (7pm): 42.1°F
2017-11-23 17:53 31 20 27 63 230° 3 - 30.01 30.02 10 CLR None
2017-11-23 16:53 33 20 - 58 - Calm - 30.00 30.01 10 CLR None
2017-11-23 15:53 40 16 38 37 300° 3 - 30.00 30.01 10 CLR None
2017-11-23 14:53 41 17 36 37 320° 7 - 30.00 30.01 10 CLR None
2017-11-23 13:53 41 18 39 38 Variable 3 - 30.01 30.02 10 CLR None
2017-11-23 12:53 40 17 34 39 290° 8 - 30.04 30.04 10 CLR 6-hr Min Temp (1pm): 28.9°F
6-hr Max Temp (1pm): 41.0°F
2017-11-23 11:53 39 18 32 42 310° 10 - 30.05 30.05 10 CLR None
2017-11-23 10:53 37 19 31 47 330° 8 - 30.08 30.09 10 CLR None
2017-11-23 09:53 35 17 26 47 330° 14 - 30.09 30.10 10 CLR None
2017-11-23 08:53 33 18 28 53 350° 6 - 30.09 30.10 10 CLR None

Support USWX by starting your Amazon purchase here.